sensor_id;sensor_type;location;lat;lon;timestamp;P1;durP1;ratioP1;P2;durP2;ratioP2
49738;SDS011;53662;50.114;8.626;2023-10-13T00:01:23;15.98;;;6.72;;
49738;SDS011;53662;50.114;8.626;2023-10-13T00:03:49;15.15;;;7.43;;
49738;SDS011;53662;50.114;8.626;2023-10-13T00:06:19;10.13;;;6.78;;
49738;SDS011;53662;50.114;8.626;2023-10-13T00:08:45;21.98;;;6.85;;
49738;SDS011;53662;50.114;8.626;2023-10-13T00:11:12;14.77;;;6.80;;
49738;SDS011;53662;50.114;8.626;2023-10-13T00:13:38;17.85;;;7.25;;
49738;SDS011;53662;50.114;8.626;2023-10-13T00:16:22;11.45;;;6.63;;
49738;SDS011;53662;50.114;8.626;2023-10-13T00:18:53;15.20;;;7.05;;
49738;SDS011;53662;50.114;8.626;2023-10-13T00:21:22;20.58;;;7.32;;
49738;SDS011;53662;50.114;8.626;2023-10-13T00:23:57;12.95;;;6.93;;
49738;SDS011;53662;50.114;8.626;2023-10-13T00:26:30;12.68;;;7.03;;
49738;SDS011;53662;50.114;8.626;2023-10-13T00:29:01;19.70;;;7.25;;
49738;SDS011;53662;50.114;8.626;2023-10-13T00:31:37;12.27;;;6.97;;
49738;SDS011;53662;50.114;8.626;2023-10-13T00:34:05;16.10;;;7.45;;
49738;SDS011;53662;50.114;8.626;2023-10-13T00:36:37;16.02;;;7.18;;
49738;SDS011;53662;50.114;8.626;2023-10-13T00:39:11;14.68;;;7.18;;
49738;SDS011;53662;50.114;8.626;2023-10-13T00:41:41;13.15;;;6.72;;
49738;SDS011;53662;50.114;8.626;2023-10-13T00:44:23;10.65;;;7.18;;
49738;SDS011;53662;50.114;8.626;2023-10-13T00:47:13;14.20;;;7.25;;
49738;SDS011;53662;50.114;8.626;2023-10-13T00:49:47;12.13;;;7.05;;
49738;SDS011;53662;50.114;8.626;2023-10-13T00:52:13;12.43;;;7.18;;
49738;SDS011;53662;50.114;8.626;2023-10-13T00:54:43;11.73;;;7.00;;
49738;SDS011;53662;50.114;8.626;2023-10-13T00:57:12;15.90;;;7.80;;
49738;SDS011;53662;50.114;8.626;2023-10-13T00:59:51;11.07;;;7.30;;
49738;SDS011;53662;50.114;8.626;2023-10-13T01:02:18;15.80;;;7.18;;
49738;SDS011;53662;50.114;8.626;2023-10-13T01:05:02;19.10;;;7.53;;
49738;SDS011;53662;50.114;8.626;2023-10-13T01:07:29;15.20;;;7.38;;
49738;SDS011;53662;50.114;8.626;2023-10-13T01:09:55;12.77;;;7.03;;
49738;SDS011;53662;50.114;8.626;2023-10-13T01:12:21;21.45;;;7.78;;
49738;SDS011;53662;50.114;8.626;2023-10-13T01:14:50;18.77;;;7.03;;
49738;SDS011;53662;50.114;8.626;2023-10-13T01:17:16;11.25;;;7.50;;
49738;SDS011;53662;50.114;8.626;2023-10-13T01:19:43;20.30;;;7.35;;
49738;SDS011;53662;50.114;8.626;2023-10-13T01:22:10;15.05;;;7.28;;
49738;SDS011;53662;50.114;8.626;2023-10-13T01:24:36;15.32;;;7.85;;
49738;SDS011;53662;50.114;8.626;2023-10-13T01:27:03;13.85;;;7.78;;
49738;SDS011;53662;50.114;8.626;2023-10-13T01:29:48;18.10;;;7.97;;
49738;SDS011;53662;50.114;8.626;2023-10-13T01:32:17;13.93;;;7.35;;
49738;SDS011;53662;50.114;8.626;2023-10-13T01:34:44;14.18;;;8.27;;
49738;SDS011;53662;50.114;8.626;2023-10-13T01:37:12;20.42;;;7.80;;
49738;SDS011;53662;50.114;8.626;2023-10-13T01:39:37;16.95;;;8.20;;
49738;SDS011;53662;50.114;8.626;2023-10-13T01:42:03;21.30;;;8.93;;
49738;SDS011;53662;50.114;8.626;2023-10-13T01:44:31;19.58;;;7.85;;
49738;SDS011;53662;50.114;8.626;2023-10-13T01:46:57;10.02;;;7.07;;
49738;SDS011;53662;50.114;8.626;2023-10-13T01:49:31;13.30;;;7.85;;
49738;SDS011;53662;50.114;8.626;2023-10-13T01:52:06;22.50;;;8.00;;
49738;SDS011;53662;50.114;8.626;2023-10-13T01:54:36;22.70;;;7.85;;
49738;SDS011;53662;50.114;8.626;2023-10-13T01:57:05;15.27;;;7.65;;
49738;SDS011;53662;50.114;8.626;2023-10-13T01:59:31;13.68;;;7.68;;
49738;SDS011;53662;50.114;8.626;2023-10-13T02:01:57;19.60;;;7.85;;
49738;SDS011;53662;50.114;8.626;2023-10-13T02:04:29;14.05;;;7.18;;
49738;SDS011;53662;50.114;8.626;2023-10-13T02:07:07;14.15;;;7.50;;
49738;SDS011;53662;50.114;8.626;2023-10-13T02:09:33;18.90;;;8.20;;
49738;SDS011;53662;50.114;8.626;2023-10-13T02:12:02;22.83;;;7.97;;
49738;SDS011;53662;50.114;8.626;2023-10-13T02:14:31;17.80;;;7.63;;
49738;SDS011;53662;50.114;8.626;2023-10-13T02:16:58;13.95;;;7.75;;
49738;SDS011;53662;50.114;8.626;2023-10-13T02:19:41;22.67;;;7.80;;
49738;SDS011;53662;50.114;8.626;2023-10-13T02:22:13;14.35;;;7.85;;
49738;SDS011;53662;50.114;8.626;2023-10-13T02:24:56;18.20;;;7.65;;
49738;SDS011;53662;50.114;8.626;2023-10-13T02:27:27;12.90;;;8.50;;
49738;SDS011;53662;50.114;8.626;2023-10-13T02:29:53;15.40;;;7.68;;
49738;SDS011;53662;50.114;8.626;2023-10-13T02:32:23;12.82;;;8.40;;
49738;SDS011;53662;50.114;8.626;2023-10-13T02:34:49;16.25;;;7.43;;
49738;SDS011;53662;50.114;8.626;2023-10-13T02:37:15;15.85;;;7.95;;
49738;SDS011;53662;50.114;8.626;2023-10-13T02:39:44;18.55;;;8.32;;
49738;SDS011;53662;50.114;8.626;2023-10-13T02:42:10;19.00;;;8.63;;
49738;SDS011;53662;50.114;8.626;2023-10-13T02:44:48;18.65;;;8.05;;
49738;SDS011;53662;50.114;8.626;2023-10-13T02:47:14;14.88;;;7.97;;
49738;SDS011;53662;50.114;8.626;2023-10-13T02:49:40;16.10;;;8.20;;
49738;SDS011;53662;50.114;8.626;2023-10-13T02:52:11;22.15;;;8.18;;
49738;SDS011;53662;50.114;8.626;2023-10-13T02:54:38;16.67;;;8.57;;
49738;SDS011;53662;50.114;8.626;2023-10-13T02:57:15;20.48;;;8.60;;
49738;SDS011;53662;50.114;8.626;2023-10-13T02:59:42;15.52;;;8.15;;
49738;SDS011;53662;50.114;8.626;2023-10-13T03:02:12;14.75;;;8.23;;
49738;SDS011;53662;50.114;8.626;2023-10-13T03:04:55;13.13;;;7.43;;
49738;SDS011;53662;50.114;8.626;2023-10-13T03:07:27;18.35;;;8.68;;
49738;SDS011;53662;50.114;8.626;2023-10-13T03:09:56;19.08;;;8.77;;
49738;SDS011;53662;50.114;8.626;2023-10-13T03:12:25;16.75;;;7.97;;
49738;SDS011;53662;50.114;8.626;2023-10-13T03:14:51;13.38;;;8.27;;
49738;SDS011;53662;50.114;8.626;2023-10-13T03:17:37;14.27;;;7.72;;
49738;SDS011;53662;50.114;8.626;2023-10-13T03:20:08;16.50;;;7.97;;
49738;SDS011;53662;50.114;8.626;2023-10-13T03:22:37;17.40;;;8.90;;
49738;SDS011;53662;50.114;8.626;2023-10-13T03:25:03;12.85;;;7.78;;
49738;SDS011;53662;50.114;8.626;2023-10-13T03:27:32;15.00;;;7.55;;
49738;SDS011;53662;50.114;8.626;2023-10-13T03:30:26;19.27;;;8.00;;
49738;SDS011;53662;50.114;8.626;2023-10-13T03:33:03;18.58;;;8.35;;
49738;SDS011;53662;50.114;8.626;2023-10-13T03:35:36;17.75;;;8.70;;
49738;SDS011;53662;50.114;8.626;2023-10-13T03:38:03;19.58;;;8.40;;
49738;SDS011;53662;50.114;8.626;2023-10-13T03:40:36;16.67;;;8.77;;
49738;SDS011;53662;50.114;8.626;2023-10-13T03:43:04;15.40;;;7.90;;
49738;SDS011;53662;50.114;8.626;2023-10-13T03:45:36;11.93;;;8.15;;
49738;SDS011;53662;50.114;8.626;2023-10-13T03:48:15;29.95;;;8.77;;
49738;SDS011;53662;50.114;8.626;2023-10-13T03:50:52;20.98;;;8.80;;
49738;SDS011;53662;50.114;8.626;2023-10-13T03:53:40;15.45;;;8.85;;
49738;SDS011;53662;50.114;8.626;2023-10-13T03:56:17;23.95;;;8.07;;
49738;SDS011;53662;50.114;8.626;2023-10-13T03:58:57;21.92;;;8.77;;
49738;SDS011;53662;50.114;8.626;2023-10-13T04:01:25;15.93;;;8.52;;
49738;SDS011;53662;50.114;8.626;2023-10-13T04:04:05;18.77;;;8.75;;
49738;SDS011;53662;50.114;8.626;2023-10-13T04:06:36;17.70;;;9.20;;
49738;SDS011;53662;50.114;8.626;2023-10-13T04:09:18;16.35;;;9.20;;
49738;SDS011;53662;50.114;8.626;2023-10-13T04:11:56;19.42;;;8.48;;
49738;SDS011;53662;50.114;8.626;2023-10-13T04:14:29;17.70;;;8.63;;
49738;SDS011;53662;50.114;8.626;2023-10-13T04:17:14;17.33;;;8.20;;
49738;SDS011;53662;50.114;8.626;2023-10-13T04:19:41;22.33;;;9.07;;
49738;SDS011;53662;50.114;8.626;2023-10-13T04:22:26;17.70;;;8.32;;
49738;SDS011;53662;50.114;8.626;2023-10-13T04:25:20;21.65;;;9.38;;
49738;SDS011;53662;50.114;8.626;2023-10-13T04:28:06;16.48;;;9.02;;
49738;SDS011;53662;50.114;8.626;2023-10-13T04:30:39;13.45;;;8.88;;
49738;SDS011;53662;50.114;8.626;2023-10-13T04:33:23;16.30;;;9.25;;
49738;SDS011;53662;50.114;8.626;2023-10-13T04:36:12;15.00;;;9.75;;
49738;SDS011;53662;50.114;8.626;2023-10-13T04:38:47;18.05;;;9.68;;
49738;SDS011;53662;50.114;8.626;2023-10-13T04:41:26;19.27;;;8.20;;
49738;SDS011;53662;50.114;8.626;2023-10-13T04:44:04;24.60;;;9.25;;
49738;SDS011;53662;50.114;8.626;2023-10-13T04:46:30;17.23;;;8.60;;
49738;SDS011;53662;50.114;8.626;2023-10-13T04:51:57;39.22;;;8.65;;
49738;SDS011;53662;50.114;8.626;2023-10-13T04:54:24;21.45;;;8.60;;
49738;SDS011;53662;50.114;8.626;2023-10-13T04:56:51;18.05;;;9.07;;
49738;SDS011;53662;50.114;8.626;2023-10-13T04:59:36;24.17;;;12.13;;
49738;SDS011;53662;50.114;8.626;2023-10-13T05:02:03;26.30;;;10.02;;
49738;SDS011;53662;50.114;8.626;2023-10-13T05:04:48;18.45;;;9.13;;
49738;SDS011;53662;50.114;8.626;2023-10-13T05:07:33;19.05;;;8.85;;
49738;SDS011;53662;50.114;8.626;2023-10-13T05:10:18;21.23;;;8.13;;
49738;SDS011;53662;50.114;8.626;2023-10-13T05:13:02;32.55;;;8.48;;
49738;SDS011;53662;50.114;8.626;2023-10-13T05:15:48;25.02;;;8.82;;
49738;SDS011;53662;50.114;8.626;2023-10-13T05:18:32;12.55;;;8.48;;
49738;SDS011;53662;50.114;8.626;2023-10-13T05:21:17;19.55;;;8.60;;
49738;SDS011;53662;50.114;8.626;2023-10-13T05:24:03;19.80;;;9.23;;
49738;SDS011;53662;50.114;8.626;2023-10-13T05:26:47;19.45;;;8.98;;
49738;SDS011;53662;50.114;8.626;2023-10-13T05:29:32;19.10;;;9.27;;
49738;SDS011;53662;50.114;8.626;2023-10-13T05:32:17;21.30;;;9.40;;
49738;SDS011;53662;50.114;8.626;2023-10-13T05:35:02;21.38;;;8.95;;
49738;SDS011;53662;50.114;8.626;2023-10-13T05:37:47;18.00;;;8.40;;
49738;SDS011;53662;50.114;8.626;2023-10-13T05:40:32;23.77;;;8.43;;
49738;SDS011;53662;50.114;8.626;2023-10-13T05:43:17;15.80;;;8.80;;
49738;SDS011;53662;50.114;8.626;2023-10-13T05:46:03;15.75;;;8.55;;
49738;SDS011;53662;50.114;8.626;2023-10-13T05:48:32;17.92;;;9.65;;
49738;SDS011;53662;50.114;8.626;2023-10-13T05:51:27;18.63;;;9.40;;
49738;SDS011;53662;50.114;8.626;2023-10-13T05:54:09;16.83;;;8.25;;
49738;SDS011;53662;50.114;8.626;2023-10-13T05:59:26;21.98;;;9.32;;
49738;SDS011;53662;50.114;8.626;2023-10-13T06:02:12;21.58;;;8.73;;
49738;SDS011;53662;50.114;8.626;2023-10-13T06:04:57;14.13;;;8.13;;
49738;SDS011;53662;50.114;8.626;2023-10-13T06:07:41;19.05;;;8.60;;
49738;SDS011;53662;50.114;8.626;2023-10-13T06:10:27;13.57;;;8.60;;
49738;SDS011;53662;50.114;8.626;2023-10-13T06:13:12;26.52;;;8.88;;
49738;SDS011;53662;50.114;8.626;2023-10-13T06:15:57;15.50;;;8.23;;
49738;SDS011;53662;50.114;8.626;2023-10-13T06:18:41;20.10;;;8.85;;
49738;SDS011;53662;50.114;8.626;2023-10-13T06:21:26;20.55;;;8.60;;
49738;SDS011;53662;50.114;8.626;2023-10-13T06:24:11;15.82;;;8.27;;
49738;SDS011;53662;50.114;8.626;2023-10-13T06:26:55;14.15;;;9.05;;
49738;SDS011;53662;50.114;8.626;2023-10-13T06:29:40;17.90;;;8.60;;
49738;SDS011;53662;50.114;8.626;2023-10-13T06:32:06;13.80;;;7.97;;
49738;SDS011;53662;50.114;8.626;2023-10-13T06:34:36;15.95;;;8.73;;
49738;SDS011;53662;50.114;8.626;2023-10-13T06:37:15;14.82;;;8.40;;
49738;SDS011;53662;50.114;8.626;2023-10-13T06:39:48;19.23;;;8.90;;
49738;SDS011;53662;50.114;8.626;2023-10-13T06:42:15;13.00;;;8.20;;
49738;SDS011;53662;50.114;8.626;2023-10-13T06:44:41;15.30;;;8.68;;
49738;SDS011;53662;50.114;8.626;2023-10-13T06:47:10;18.73;;;8.75;;
49738;SDS011;53662;50.114;8.626;2023-10-13T06:49:36;20.88;;;9.00;;
49738;SDS011;53662;50.114;8.626;2023-10-13T06:52:04;15.77;;;8.30;;
49738;SDS011;53662;50.114;8.626;2023-10-13T06:54:35;14.88;;;8.00;;
49738;SDS011;53662;50.114;8.626;2023-10-13T06:57:02;17.15;;;8.65;;
49738;SDS011;53662;50.114;8.626;2023-10-13T06:59:31;20.65;;;8.45;;
49738;SDS011;53662;50.114;8.626;2023-10-13T07:01:59;15.30;;;8.10;;
49738;SDS011;53662;50.114;8.626;2023-10-13T07:04:31;21.15;;;8.52;;
49738;SDS011;53662;50.114;8.626;2023-10-13T07:06:57;15.32;;;8.65;;
49738;SDS011;53662;50.114;8.626;2023-10-13T07:09:25;20.58;;;8.35;;
49738;SDS011;53662;50.114;8.626;2023-10-13T07:12:04;13.07;;;7.85;;
49738;SDS011;53662;50.114;8.626;2023-10-13T07:14:44;21.35;;;7.95;;
49738;SDS011;53662;50.114;8.626;2023-10-13T07:17:16;22.73;;;10.05;;
49738;SDS011;53662;50.114;8.626;2023-10-13T07:19:48;17.50;;;8.95;;
49738;SDS011;53662;50.114;8.626;2023-10-13T07:22:18;22.20;;;8.73;;
49738;SDS011;53662;50.114;8.626;2023-10-13T07:24:47;16.67;;;8.95;;
49738;SDS011;53662;50.114;8.626;2023-10-13T07:27:17;17.92;;;8.60;;
49738;SDS011;53662;50.114;8.626;2023-10-13T07:29:53;24.08;;;9.63;;
49738;SDS011;53662;50.114;8.626;2023-10-13T07:32:41;17.00;;;8.88;;
49738;SDS011;53662;50.114;8.626;2023-10-13T07:35:17;19.45;;;8.95;;
49738;SDS011;53662;50.114;8.626;2023-10-13T07:37:45;16.52;;;8.60;;
49738;SDS011;53662;50.114;8.626;2023-10-13T07:40:17;19.50;;;8.80;;
49738;SDS011;53662;50.114;8.626;2023-10-13T07:43:04;12.20;;;8.73;;
49738;SDS011;53662;50.114;8.626;2023-10-13T07:45:37;23.02;;;9.07;;
49738;SDS011;53662;50.114;8.626;2023-10-13T07:48:07;13.70;;;8.82;;
49738;SDS011;53662;50.114;8.626;2023-10-13T07:51:07;16.80;;;8.57;;
49738;SDS011;53662;50.114;8.626;2023-10-13T07:53:37;14.47;;;8.67;;
49738;SDS011;53662;50.114;8.626;2023-10-13T07:56:08;19.35;;;9.07;;
49738;SDS011;53662;50.114;8.626;2023-10-13T07:58:36;14.70;;;9.15;;
49738;SDS011;53662;50.114;8.626;2023-10-13T08:01:12;21.52;;;8.90;;
49738;SDS011;53662;50.114;8.626;2023-10-13T08:03:45;20.75;;;9.05;;
49738;SDS011;53662;50.114;8.626;2023-10-13T08:06:12;25.00;;;9.32;;
49738;SDS011;53662;50.114;8.626;2023-10-13T08:08:38;13.10;;;9.07;;
49738;SDS011;53662;50.114;8.626;2023-10-13T08:11:07;23.85;;;9.05;;
49738;SDS011;53662;50.114;8.626;2023-10-13T08:13:43;37.10;;;14.65;;
49738;SDS011;53662;50.114;8.626;2023-10-13T08:16:12;15.27;;;8.43;;
49738;SDS011;53662;50.114;8.626;2023-10-13T08:18:46;22.85;;;9.15;;
49738;SDS011;53662;50.114;8.626;2023-10-13T08:21:14;16.88;;;8.77;;
49738;SDS011;53662;50.114;8.626;2023-10-13T08:23:47;15.50;;;8.23;;
49738;SDS011;53662;50.114;8.626;2023-10-13T08:26:24;18.25;;;8.05;;
49738;SDS011;53662;50.114;8.626;2023-10-13T08:29:16;21.55;;;7.60;;
49738;SDS011;53662;50.114;8.626;2023-10-13T08:31:45;17.20;;;8.30;;
49738;SDS011;53662;50.114;8.626;2023-10-13T08:34:30;14.55;;;7.38;;
49738;SDS011;53662;50.114;8.626;2023-10-13T08:37:07;15.52;;;8.32;;
49738;SDS011;53662;50.114;8.626;2023-10-13T08:39:51;20.42;;;8.02;;
49738;SDS011;53662;50.114;8.626;2023-10-13T08:42:31;20.52;;;7.53;;
49738;SDS011;53662;50.114;8.626;2023-10-13T08:45:09;15.52;;;7.63;;
49738;SDS011;53662;50.114;8.626;2023-10-13T08:47:48;11.25;;;7.13;;
49738;SDS011;53662;50.114;8.626;2023-10-13T08:50:38;22.52;;;7.28;;
49738;SDS011;53662;50.114;8.626;2023-10-13T08:53:17;15.98;;;7.50;;
49738;SDS011;53662;50.114;8.626;2023-10-13T08:56:02;16.50;;;7.30;;
49738;SDS011;53662;50.114;8.626;2023-10-13T08:59:00;12.20;;;6.38;;
49738;SDS011;53662;50.114;8.626;2023-10-13T09:01:32;18.55;;;6.85;;
49738;SDS011;53662;50.114;8.626;2023-10-13T09:04:25;23.08;;;7.38;;
49738;SDS011;53662;50.114;8.626;2023-10-13T09:06:58;14.68;;;6.97;;
49738;SDS011;53662;50.114;8.626;2023-10-13T09:09:24;15.38;;;7.22;;
49738;SDS011;53662;50.114;8.626;2023-10-13T09:11:59;14.48;;;7.53;;
49738;SDS011;53662;50.114;8.626;2023-10-13T09:14:35;15.80;;;7.28;;
49738;SDS011;53662;50.114;8.626;2023-10-13T09:17:04;12.73;;;6.80;;
49738;SDS011;53662;50.114;8.626;2023-10-13T09:19:50;19.40;;;6.22;;
49738;SDS011;53662;50.114;8.626;2023-10-13T09:22:23;15.13;;;6.50;;
49738;SDS011;53662;50.114;8.626;2023-10-13T09:24:58;16.70;;;7.03;;
49738;SDS011;53662;50.114;8.626;2023-10-13T09:27:29;13.48;;;6.18;;
49738;SDS011;53662;50.114;8.626;2023-10-13T09:30:01;17.15;;;6.30;;
49738;SDS011;53662;50.114;8.626;2023-10-13T09:32:46;16.85;;;6.15;;
49738;SDS011;53662;50.114;8.626;2023-10-13T09:35:17;11.77;;;6.10;;
49738;SDS011;53662;50.114;8.626;2023-10-13T09:37:44;14.88;;;6.05;;
49738;SDS011;53662;50.114;8.626;2023-10-13T09:40:16;15.30;;;6.43;;
49738;SDS011;53662;50.114;8.626;2023-10-13T09:43:00;11.82;;;5.88;;
49738;SDS011;53662;50.114;8.626;2023-10-13T09:45:33;15.68;;;5.60;;
49738;SDS011;53662;50.114;8.626;2023-10-13T09:48:08;18.80;;;5.50;;
49738;SDS011;53662;50.114;8.626;2023-10-13T09:50:42;12.40;;;5.97;;
49738;SDS011;53662;50.114;8.626;2023-10-13T09:53:10;15.32;;;5.70;;
49738;SDS011;53662;50.114;8.626;2023-10-13T09:55:40;20.15;;;6.22;;
49738;SDS011;53662;50.114;8.626;2023-10-13T09:58:09;15.63;;;9.02;;
49738;SDS011;53662;50.114;8.626;2023-10-13T10:00:48;16.50;;;5.95;;
49738;SDS011;53662;50.114;8.626;2023-10-13T10:03:45;15.52;;;5.45;;
49738;SDS011;53662;50.114;8.626;2023-10-13T10:06:22;12.43;;;5.30;;
49738;SDS011;53662;50.114;8.626;2023-10-13T10:09:06;9.35;;;5.78;;
49738;SDS011;53662;50.114;8.626;2023-10-13T10:19:14;13.25;;;5.47;;
49738;SDS011;53662;50.114;8.626;2023-10-13T10:21:40;9.80;;;5.35;;
49738;SDS011;53662;50.114;8.626;2023-10-13T10:24:14;10.82;;;6.20;;
49738;SDS011;53662;50.114;8.626;2023-10-13T10:26:52;9.45;;;5.00;;
49738;SDS011;53662;50.114;8.626;2023-10-13T10:29:18;13.93;;;5.40;;
49738;SDS011;53662;50.114;8.626;2023-10-13T10:31:44;12.52;;;5.53;;
49738;SDS011;53662;50.114;8.626;2023-10-13T10:34:12;14.52;;;5.90;;
49738;SDS011;53662;50.114;8.626;2023-10-13T10:36:38;15.30;;;5.53;;
49738;SDS011;53662;50.114;8.626;2023-10-13T10:39:07;11.05;;;6.15;;
49738;SDS011;53662;50.114;8.626;2023-10-13T10:41:36;13.00;;;6.18;;
49738;SDS011;53662;50.114;8.626;2023-10-13T10:44:11;10.48;;;5.35;;
49738;SDS011;53662;50.114;8.626;2023-10-13T10:46:41;9.38;;;5.10;;
49738;SDS011;53662;50.114;8.626;2023-10-13T10:49:16;12.65;;;5.75;;
49738;SDS011;53662;50.114;8.626;2023-10-13T10:51:52;15.90;;;5.75;;
49738;SDS011;53662;50.114;8.626;2023-10-13T10:54:23;8.37;;;4.73;;
49738;SDS011;53662;50.114;8.626;2023-10-13T10:56:55;8.95;;;5.50;;
49738;SDS011;53662;50.114;8.626;2023-10-13T10:59:24;9.38;;;5.03;;
49738;SDS011;53662;50.114;8.626;2023-10-13T11:01:54;13.15;;;5.18;;
49738;SDS011;53662;50.114;8.626;2023-10-13T11:04:23;9.05;;;5.28;;
49738;SDS011;53662;50.114;8.626;2023-10-13T11:06:58;11.75;;;5.35;;
49738;SDS011;53662;50.114;8.626;2023-10-13T11:11:56;13.98;;;4.95;;
49738;SDS011;53662;50.114;8.626;2023-10-13T11:16:49;7.15;;;4.85;;
49738;SDS011;53662;50.114;8.626;2023-10-13T11:19:19;7.70;;;5.53;;
49738;SDS011;53662;50.114;8.626;2023-10-13T11:21:46;11.88;;;5.28;;
49738;SDS011;53662;50.114;8.626;2023-10-13T11:24:15;14.02;;;5.15;;
49738;SDS011;53662;50.114;8.626;2023-10-13T11:26:42;9.38;;;5.72;;
49738;SDS011;53662;50.114;8.626;2023-10-13T11:29:18;20.10;;;5.75;;
49738;SDS011;53662;50.114;8.626;2023-10-13T11:31:47;10.38;;;4.82;;
49738;SDS011;53662;50.114;8.626;2023-10-13T11:34:20;7.13;;;5.28;;
49738;SDS011;53662;50.114;8.626;2023-10-13T11:36:46;17.38;;;4.97;;
49738;SDS011;53662;50.114;8.626;2023-10-13T11:39:12;7.75;;;4.90;;
49738;SDS011;53662;50.114;8.626;2023-10-13T11:41:44;6.43;;;4.93;;
49738;SDS011;53662;50.114;8.626;2023-10-13T11:44:19;10.10;;;5.20;;
49738;SDS011;53662;50.114;8.626;2023-10-13T11:46:45;17.40;;;5.32;;
49738;SDS011;53662;50.114;8.626;2023-10-13T11:49:20;11.10;;;5.78;;
49738;SDS011;53662;50.114;8.626;2023-10-13T11:51:49;14.23;;;5.30;;
49738;SDS011;53662;50.114;8.626;2023-10-13T11:54:16;9.15;;;5.75;;
49738;SDS011;53662;50.114;8.626;2023-10-13T11:56:43;10.93;;;5.25;;
49738;SDS011;53662;50.114;8.626;2023-10-13T11:59:09;8.63;;;4.90;;
49738;SDS011;53662;50.114;8.626;2023-10-13T12:01:43;9.48;;;4.82;;
49738;SDS011;53662;50.114;8.626;2023-10-13T12:04:27;14.65;;;5.13;;
49738;SDS011;53662;50.114;8.626;2023-10-13T12:07:06;7.57;;;5.47;;
49738;SDS011;53662;50.114;8.626;2023-10-13T12:09:38;5.65;;;4.68;;
49738;SDS011;53662;50.114;8.626;2023-10-13T12:12:20;6.30;;;4.97;;
49738;SDS011;53662;50.114;8.626;2023-10-13T12:14:46;9.02;;;5.00;;
49738;SDS011;53662;50.114;8.626;2023-10-13T12:17:20;11.40;;;4.80;;
49738;SDS011;53662;50.114;8.626;2023-10-13T12:20:04;9.77;;;5.78;;
49738;SDS011;53662;50.114;8.626;2023-10-13T12:22:31;5.75;;;5.25;;
49738;SDS011;53662;50.114;8.626;2023-10-13T12:25:19;8.05;;;5.40;;
49738;SDS011;53662;50.114;8.626;2023-10-13T12:27:57;7.05;;;5.15;;
49738;SDS011;53662;50.114;8.626;2023-10-13T12:30:37;7.65;;;5.20;;
49738;SDS011;53662;50.114;8.626;2023-10-13T12:33:14;10.10;;;5.07;;
49738;SDS011;53662;50.114;8.626;2023-10-13T12:35:42;14.50;;;5.38;;
49738;SDS011;53662;50.114;8.626;2023-10-13T12:38:26;11.98;;;5.05;;
49738;SDS011;53662;50.114;8.626;2023-10-13T12:41:04;7.75;;;5.00;;
49738;SDS011;53662;50.114;8.626;2023-10-13T12:43:49;6.50;;;5.65;;
49738;SDS011;53662;50.114;8.626;2023-10-13T12:46:34;8.88;;;4.68;;
49738;SDS011;53662;50.114;8.626;2023-10-13T12:49:19;6.78;;;4.60;;
49738;SDS011;53662;50.114;8.626;2023-10-13T12:52:23;9.48;;;5.10;;
49738;SDS011;53662;50.114;8.626;2023-10-13T12:54:56;11.52;;;5.15;;
49738;SDS011;53662;50.114;8.626;2023-10-13T12:57:26;6.40;;;5.35;;
49738;SDS011;53662;50.114;8.626;2023-10-13T12:59:52;14.43;;;4.97;;
49738;SDS011;53662;50.114;8.626;2023-10-13T13:02:21;12.05;;;5.30;;
49738;SDS011;53662;50.114;8.626;2023-10-13T13:04:49;11.02;;;4.70;;
49738;SDS011;53662;50.114;8.626;2023-10-13T13:07:36;6.78;;;5.53;;
49738;SDS011;53662;50.114;8.626;2023-10-13T13:10:10;9.18;;;5.15;;
49738;SDS011;53662;50.114;8.626;2023-10-13T13:12:37;8.50;;;5.10;;
49738;SDS011;53662;50.114;8.626;2023-10-13T13:15:03;7.28;;;5.00;;
49738;SDS011;53662;50.114;8.626;2023-10-13T13:17:33;8.40;;;4.88;;
49738;SDS011;53662;50.114;8.626;2023-10-13T13:19:59;9.50;;;5.13;;
49738;SDS011;53662;50.114;8.626;2023-10-13T13:22:25;14.38;;;5.72;;
49738;SDS011;53662;50.114;8.626;2023-10-13T13:24:52;8.68;;;5.43;;
49738;SDS011;53662;50.114;8.626;2023-10-13T13:27:18;6.63;;;5.05;;
49738;SDS011;53662;50.114;8.626;2023-10-13T13:29:48;5.45;;;4.95;;
49738;SDS011;53662;50.114;8.626;2023-10-13T13:32:14;10.93;;;5.25;;
49738;SDS011;53662;50.114;8.626;2023-10-13T13:34:52;7.60;;;4.85;;
49738;SDS011;53662;50.114;8.626;2023-10-13T13:37:32;8.90;;;4.78;;
49738;SDS011;53662;50.114;8.626;2023-10-13T13:39:58;7.13;;;5.75;;
49738;SDS011;53662;50.114;8.626;2023-10-13T13:42:40;8.82;;;4.78;;
49738;SDS011;53662;50.114;8.626;2023-10-13T13:45:11;9.52;;;5.03;;
49738;SDS011;53662;50.114;8.626;2023-10-13T13:47:46;8.10;;;5.07;;
49738;SDS011;53662;50.114;8.626;2023-10-13T13:50:12;9.23;;;4.68;;
49738;SDS011;53662;50.114;8.626;2023-10-13T13:52:39;7.80;;;4.45;;
49738;SDS011;53662;50.114;8.626;2023-10-13T13:55:11;12.63;;;5.22;;
49738;SDS011;53662;50.114;8.626;2023-10-13T13:57:42;7.82;;;4.80;;
49738;SDS011;53662;50.114;8.626;2023-10-13T14:00:09;11.70;;;4.55;;
49738;SDS011;53662;50.114;8.626;2023-10-13T14:02:41;14.82;;;5.13;;
49738;SDS011;53662;50.114;8.626;2023-10-13T14:05:12;6.80;;;4.32;;
49738;SDS011;53662;50.114;8.626;2023-10-13T14:07:40;12.20;;;4.88;;
49738;SDS011;53662;50.114;8.626;2023-10-13T14:10:06;10.63;;;4.53;;
49738;SDS011;53662;50.114;8.626;2023-10-13T14:12:41;7.90;;;4.88;;
49738;SDS011;53662;50.114;8.626;2023-10-13T14:15:07;11.85;;;4.50;;
49738;SDS011;53662;50.114;8.626;2023-10-13T14:17:45;14.38;;;5.38;;
49738;SDS011;53662;50.114;8.626;2023-10-13T14:20:11;7.82;;;4.28;;
49738;SDS011;53662;50.114;8.626;2023-10-13T14:22:43;10.75;;;4.25;;
49738;SDS011;53662;50.114;8.626;2023-10-13T14:25:12;13.13;;;5.30;;
49738;SDS011;53662;50.114;8.626;2023-10-13T14:27:40;8.00;;;4.45;;
49738;SDS011;53662;50.114;8.626;2023-10-13T14:30:06;10.18;;;4.60;;
49738;SDS011;53662;50.114;8.626;2023-10-13T14:32:32;6.82;;;4.85;;
49738;SDS011;53662;50.114;8.626;2023-10-13T14:35:05;8.30;;;4.50;;
49738;SDS011;53662;50.114;8.626;2023-10-13T14:37:39;6.00;;;4.30;;
49738;SDS011;53662;50.114;8.626;2023-10-13T14:40:05;15.25;;;4.88;;
49738;SDS011;53662;50.114;8.626;2023-10-13T14:42:36;5.60;;;4.03;;
49738;SDS011;53662;50.114;8.626;2023-10-13T14:45:05;10.75;;;4.20;;
49738;SDS011;53662;50.114;8.626;2023-10-13T14:47:37;11.88;;;4.18;;
49738;SDS011;53662;50.114;8.626;2023-10-13T14:50:04;7.18;;;4.22;;
49738;SDS011;53662;50.114;8.626;2023-10-13T14:52:30;8.65;;;3.92;;
49738;SDS011;53662;50.114;8.626;2023-10-13T14:54:57;7.55;;;4.88;;
49738;SDS011;53662;50.114;8.626;2023-10-13T14:57:23;9.30;;;4.38;;
49738;SDS011;53662;50.114;8.626;2023-10-13T14:59:50;8.48;;;4.43;;
49738;SDS011;53662;50.114;8.626;2023-10-13T15:02:16;7.43;;;4.15;;
49738;SDS011;53662;50.114;8.626;2023-10-13T15:04:42;7.38;;;4.78;;
49738;SDS011;53662;50.114;8.626;2023-10-13T15:07:07;11.18;;;4.57;;
49738;SDS011;53662;50.114;8.626;2023-10-13T15:09:33;8.50;;;4.47;;
49738;SDS011;53662;50.114;8.626;2023-10-13T15:11:59;14.02;;;4.57;;
49738;SDS011;53662;50.114;8.626;2023-10-13T15:14:30;9.57;;;4.00;;
49738;SDS011;53662;50.114;8.626;2023-10-13T15:16:58;9.77;;;4.60;;
49738;SDS011;53662;50.114;8.626;2023-10-13T15:19:25;10.68;;;4.65;;
49738;SDS011;53662;50.114;8.626;2023-10-13T15:21:54;10.45;;;4.63;;
49738;SDS011;53662;50.114;8.626;2023-10-13T15:24:20;12.85;;;4.72;;
49738;SDS011;53662;50.114;8.626;2023-10-13T15:26:49;7.55;;;4.55;;
49738;SDS011;53662;50.114;8.626;2023-10-13T15:29:17;6.68;;;4.68;;
49738;SDS011;53662;50.114;8.626;2023-10-13T15:31:50;11.85;;;4.63;;